sensor_id;sensor_type;location;lat;lon;timestamp;temperature;humidity
25410;DHT22;13339;50.840;4.346;2022-07-21T00:01:01;21.60;99.90
25410;DHT22;13339;50.840;4.346;2022-07-21T00:03:27;21.50;99.90
25410;DHT22;13339;50.840;4.346;2022-07-21T00:05:53;21.50;99.90
25410;DHT22;13339;50.840;4.346;2022-07-21T00:08:18;21.60;99.90
25410;DHT22;13339;50.840;4.346;2022-07-21T00:10:44;21.60;99.90
25410;DHT22;13339;50.840;4.346;2022-07-21T00:13:10;21.60;99.90
25410;DHT22;13339;50.840;4.346;2022-07-21T00:15:35;21.60;99.90
25410;DHT22;13339;50.840;4.346;2022-07-21T00:18:01;21.60;99.90
25410;DHT22;13339;50.840;4.346;2022-07-21T00:20:27;21.60;99.90
25410;DHT22;13339;50.840;4.346;2022-07-21T00:22:55;21.50;99.90
25410;DHT22;13339;50.840;4.346;2022-07-21T00:25:22;21.60;99.90
25410;DHT22;13339;50.840;4.346;2022-07-21T00:27:47;21.60;99.90
25410;DHT22;13339;50.840;4.346;2022-07-21T00:30:14;21.60;99.90
25410;DHT22;13339;50.840;4.346;2022-07-21T00:32:40;21.60;99.90
25410;DHT22;13339;50.840;4.346;2022-07-21T00:35:07;21.70;99.90
25410;DHT22;13339;50.840;4.346;2022-07-21T00:37:33;21.70;99.90
25410;DHT22;13339;50.840;4.346;2022-07-21T00:39:58;21.70;99.90
25410;DHT22;13339;50.840;4.346;2022-07-21T00:42:27;21.70;99.90
25410;DHT22;13339;50.840;4.346;2022-07-21T00:44:53;21.60;99.90
25410;DHT22;13339;50.840;4.346;2022-07-21T00:47:23;21.60;99.90
25410;DHT22;13339;50.840;4.346;2022-07-21T00:49:49;21.60;99.90
25410;DHT22;13339;50.840;4.346;2022-07-21T00:52:15;21.60;99.90
25410;DHT22;13339;50.840;4.346;2022-07-21T00:54:42;21.60;99.90
25410;DHT22;13339;50.840;4.346;2022-07-21T00:57:08;21.50;99.90
25410;DHT22;13339;50.840;4.346;2022-07-21T00:59:34;21.50;99.90
25410;DHT22;13339;50.840;4.346;2022-07-21T01:02:00;21.50;99.90
25410;DHT22;13339;50.840;4.346;2022-07-21T01:04:26;21.50;99.90
25410;DHT22;13339;50.840;4.346;2022-07-21T01:06:53;21.50;99.90
25410;DHT22;13339;50.840;4.346;2022-07-21T01:09:20;21.50;99.90
25410;DHT22;13339;50.840;4.346;2022-07-21T01:11:46;21.50;99.90
25410;DHT22;13339;50.840;4.346;2022-07-21T01:14:12;21.50;99.90
25410;DHT22;13339;50.840;4.346;2022-07-21T01:16:40;21.50;99.90
25410;DHT22;13339;50.840;4.346;2022-07-21T01:19:06;21.30;99.90
25410;DHT22;13339;50.840;4.346;2022-07-21T01:21:37;21.40;99.90
25410;DHT22;13339;50.840;4.346;2022-07-21T01:24:04;21.40;99.90
25410;DHT22;13339;50.840;4.346;2022-07-21T01:26:31;21.50;99.90
25410;DHT22;13339;50.840;4.346;2022-07-21T01:28:57;21.50;99.90
25410;DHT22;13339;50.840;4.346;2022-07-21T01:31:23;21.50;99.90
25410;DHT22;13339;50.840;4.346;2022-07-21T01:33:50;21.50;99.90
25410;DHT22;13339;50.840;4.346;2022-07-21T01:36:16;21.50;99.90
25410;DHT22;13339;50.840;4.346;2022-07-21T01:38:42;21.40;99.90
25410;DHT22;13339;50.840;4.346;2022-07-21T01:41:26;21.30;99.90
25410;DHT22;13339;50.840;4.346;2022-07-21T01:43:54;21.40;99.90
25410;DHT22;13339;50.840;4.346;2022-07-21T01:46:20;21.40;99.90
25410;DHT22;13339;50.840;4.346;2022-07-21T01:48:46;21.30;99.90
25410;DHT22;13339;50.840;4.346;2022-07-21T01:51:12;21.30;99.90
25410;DHT22;13339;50.840;4.346;2022-07-21T01:53:38;21.30;99.90
25410;DHT22;13339;50.840;4.346;2022-07-21T01:56:04;21.30;99.90
25410;DHT22;13339;50.840;4.346;2022-07-21T01:58:31;21.30;99.90
25410;DHT22;13339;50.840;4.346;2022-07-21T02:00:56;21.30;99.90
25410;DHT22;13339;50.840;4.346;2022-07-21T02:03:22;21.30;99.90
25410;DHT22;13339;50.840;4.346;2022-07-21T02:05:48;21.30;99.90
25410;DHT22;13339;50.840;4.346;2022-07-21T02:08:14;21.30;99.90
25410;DHT22;13339;50.840;4.346;2022-07-21T02:10:39;21.30;99.90
25410;DHT22;13339;50.840;4.346;2022-07-21T02:13:05;21.30;99.90
25410;DHT22;13339;50.840;4.346;2022-07-21T02:15:31;21.30;99.90
25410;DHT22;13339;50.840;4.346;2022-07-21T02:17:57;21.30;99.90
25410;DHT22;13339;50.840;4.346;2022-07-21T02:20:23;21.20;99.90
25410;DHT22;13339;50.840;4.346;2022-07-21T02:22:50;21.30;99.90
25410;DHT22;13339;50.840;4.346;2022-07-21T02:25:16;21.30;99.90
25410;DHT22;13339;50.840;4.346;2022-07-21T02:27:42;21.30;99.90
25410;DHT22;13339;50.840;4.346;2022-07-21T02:30:09;21.40;99.90
25410;DHT22;13339;50.840;4.346;2022-07-21T02:32:35;21.40;99.90
25410;DHT22;13339;50.840;4.346;2022-07-21T02:35:00;21.40;99.90
25410;DHT22;13339;50.840;4.346;2022-07-21T02:37:28;21.30;99.90
25410;DHT22;13339;50.840;4.346;2022-07-21T02:39:54;21.20;99.90
25410;DHT22;13339;50.840;4.346;2022-07-21T02:42:19;21.20;99.90
25410;DHT22;13339;50.840;4.346;2022-07-21T02:44:45;21.20;99.90
25410;DHT22;13339;50.840;4.346;2022-07-21T02:47:11;21.30;99.90
25410;DHT22;13339;50.840;4.346;2022-07-21T02:49:37;21.30;99.90
25410;DHT22;13339;50.840;4.346;2022-07-21T02:52:03;21.30;99.90
25410;DHT22;13339;50.840;4.346;2022-07-21T02:54:29;21.20;99.90
25410;DHT22;13339;50.840;4.346;2022-07-21T02:56:54;21.20;99.90
25410;DHT22;13339;50.840;4.346;2022-07-21T02:59:20;21.30;99.90
25410;DHT22;13339;50.840;4.346;2022-07-21T03:01:46;21.10;99.90
25410;DHT22;13339;50.840;4.346;2022-07-21T03:04:11;21.20;99.90
25410;DHT22;13339;50.840;4.346;2022-07-21T03:06:37;21.20;99.90
25410;DHT22;13339;50.840;4.346;2022-07-21T03:09:04;21.20;99.90
25410;DHT22;13339;50.840;4.346;2022-07-21T03:11:29;21.10;99.90
25410;DHT22;13339;50.840;4.346;2022-07-21T03:13:55;21.00;99.90
25410;DHT22;13339;50.840;4.346;2022-07-21T03:16:21;21.00;99.90
25410;DHT22;13339;50.840;4.346;2022-07-21T03:18:46;21.00;99.90
25410;DHT22;13339;50.840;4.346;2022-07-21T03:21:13;20.90;99.90
25410;DHT22;13339;50.840;4.346;2022-07-21T03:23:38;21.00;99.90
25410;DHT22;13339;50.840;4.346;2022-07-21T03:26:04;21.10;99.90
25410;DHT22;13339;50.840;4.346;2022-07-21T03:28:30;21.10;99.90
25410;DHT22;13339;50.840;4.346;2022-07-21T03:30:56;21.20;99.90
25410;DHT22;13339;50.840;4.346;2022-07-21T03:33:21;21.20;99.90
25410;DHT22;13339;50.840;4.346;2022-07-21T03:35:47;21.10;99.90
25410;DHT22;13339;50.840;4.346;2022-07-21T03:38:12;21.20;99.90
25410;DHT22;13339;50.840;4.346;2022-07-21T03:40:38;21.20;99.90
25410;DHT22;13339;50.840;4.346;2022-07-21T03:43:06;21.20;99.90
25410;DHT22;13339;50.840;4.346;2022-07-21T03:45:33;21.20;99.90
25410;DHT22;13339;50.840;4.346;2022-07-21T03:48:02;21.10;99.90
25410;DHT22;13339;50.840;4.346;2022-07-21T03:50:29;21.00;99.90
25410;DHT22;13339;50.840;4.346;2022-07-21T03:52:55;21.00;99.90
25410;DHT22;13339;50.840;4.346;2022-07-21T03:55:21;21.00;99.90
25410;DHT22;13339;50.840;4.346;2022-07-21T03:57:50;21.00;99.90
25410;DHT22;13339;50.840;4.346;2022-07-21T04:00:18;21.00;99.90
25410;DHT22;13339;50.840;4.346;2022-07-21T04:02:46;21.00;99.90
25410;DHT22;13339;50.840;4.346;2022-07-21T04:05:13;21.00;99.90
25410;DHT22;13339;50.840;4.346;2022-07-21T04:07:43;21.00;99.90
25410;DHT22;13339;50.840;4.346;2022-07-21T04:10:11;21.00;99.90
25410;DHT22;13339;50.840;4.346;2022-07-21T04:12:37;21.20;99.90
25410;DHT22;13339;50.840;4.346;2022-07-21T04:15:05;21.20;99.90
25410;DHT22;13339;50.840;4.346;2022-07-21T04:17:31;21.20;99.90
25410;DHT22;13339;50.840;4.346;2022-07-21T04:19:57;21.30;99.90
25410;DHT22;13339;50.840;4.346;2022-07-21T04:22:22;21.30;99.90
25410;DHT22;13339;50.840;4.346;2022-07-21T04:24:48;21.20;99.90
25410;DHT22;13339;50.840;4.346;2022-07-21T04:27:14;21.20;99.90
25410;DHT22;13339;50.840;4.346;2022-07-21T04:29:39;21.30;99.90
25410;DHT22;13339;50.840;4.346;2022-07-21T04:32:05;21.20;99.90
25410;DHT22;13339;50.840;4.346;2022-07-21T04:34:31;21.20;99.90
25410;DHT22;13339;50.840;4.346;2022-07-21T04:36:56;21.30;99.90
25410;DHT22;13339;50.840;4.346;2022-07-21T04:39:22;21.20;99.90
25410;DHT22;13339;50.840;4.346;2022-07-21T04:41:47;21.20;99.90
25410;DHT22;13339;50.840;4.346;2022-07-21T04:44:13;21.20;99.90
25410;DHT22;13339;50.840;4.346;2022-07-21T04:46:39;21.20;99.90
25410;DHT22;13339;50.840;4.346;2022-07-21T04:49:05;21.40;99.90
25410;DHT22;13339;50.840;4.346;2022-07-21T04:51:30;21.40;99.90
25410;DHT22;13339;50.840;4.346;2022-07-21T04:53:56;21.40;99.90
25410;DHT22;13339;50.840;4.346;2022-07-21T04:56:21;21.40;99.90
25410;DHT22;13339;50.840;4.346;2022-07-21T04:58:47;21.40;99.90
25410;DHT22;13339;50.840;4.346;2022-07-21T05:01:13;21.30;99.90
25410;DHT22;13339;50.840;4.346;2022-07-21T05:03:39;21.30;99.90
25410;DHT22;13339;50.840;4.346;2022-07-21T05:06:05;21.30;99.90
25410;DHT22;13339;50.840;4.346;2022-07-21T05:08:30;21.30;99.90
25410;DHT22;13339;50.840;4.346;2022-07-21T05:10:56;21.30;99.90
25410;DHT22;13339;50.840;4.346;2022-07-21T05:13:21;21.30;99.90
25410;DHT22;13339;50.840;4.346;2022-07-21T05:15:47;21.30;99.90
25410;DHT22;13339;50.840;4.346;2022-07-21T05:18:13;21.30;99.90
25410;DHT22;13339;50.840;4.346;2022-07-21T05:20:38;21.10;99.90
25410;DHT22;13339;50.840;4.346;2022-07-21T05:23:04;21.10;99.90
25410;DHT22;13339;50.840;4.346;2022-07-21T05:25:29;21.10;99.90
25410;DHT22;13339;50.840;4.346;2022-07-21T05:27:57;21.10;99.90
25410;DHT22;13339;50.840;4.346;2022-07-21T05:30:23;21.10;99.90
25410;DHT22;13339;50.840;4.346;2022-07-21T05:32:49;21.20;99.90
25410;DHT22;13339;50.840;4.346;2022-07-21T05:35:15;21.20;99.90
25410;DHT22;13339;50.840;4.346;2022-07-21T05:37:42;21.20;99.90
25410;DHT22;13339;50.840;4.346;2022-07-21T05:40:08;21.20;99.90
25410;DHT22;13339;50.840;4.346;2022-07-21T05:42:35;21.20;99.90
25410;DHT22;13339;50.840;4.346;2022-07-21T05:45:01;21.20;99.90
25410;DHT22;13339;50.840;4.346;2022-07-21T05:47:28;21.20;99.90
25410;DHT22;13339;50.840;4.346;2022-07-21T05:49:53;21.20;99.90
25410;DHT22;13339;50.840;4.346;2022-07-21T05:52:19;21.20;99.90
25410;DHT22;13339;50.840;4.346;2022-07-21T05:54:44;21.20;99.90
25410;DHT22;13339;50.840;4.346;2022-07-21T05:57:11;21.30;99.90
25410;DHT22;13339;50.840;4.346;2022-07-21T05:59:37;21.30;99.90
25410;DHT22;13339;50.840;4.346;2022-07-21T06:02:02;21.20;99.90
25410;DHT22;13339;50.840;4.346;2022-07-21T06:04:28;21.20;99.90
25410;DHT22;13339;50.840;4.346;2022-07-21T06:06:54;21.10;99.90
25410;DHT22;13339;50.840;4.346;2022-07-21T06:09:20;21.10;99.90
25410;DHT22;13339;50.840;4.346;2022-07-21T06:11:45;21.10;99.90
25410;DHT22;13339;50.840;4.346;2022-07-21T06:14:11;21.00;99.90
25410;DHT22;13339;50.840;4.346;2022-07-21T06:16:37;20.90;99.90
25410;DHT22;13339;50.840;4.346;2022-07-21T06:19:03;21.00;99.90
25410;DHT22;13339;50.840;4.346;2022-07-21T06:21:29;21.00;99.90
25410;DHT22;13339;50.840;4.346;2022-07-21T06:23:54;21.00;99.90
25410;DHT22;13339;50.840;4.346;2022-07-21T06:26:20;21.00;99.90
25410;DHT22;13339;50.840;4.346;2022-07-21T06:28:46;21.00;99.90
25410;DHT22;13339;50.840;4.346;2022-07-21T06:31:11;21.10;99.90
25410;DHT22;13339;50.840;4.346;2022-07-21T06:33:37;21.00;99.90
25410;DHT22;13339;50.840;4.346;2022-07-21T06:36:03;21.00;99.90
25410;DHT22;13339;50.840;4.346;2022-07-21T06:38:29;21.00;99.90
25410;DHT22;13339;50.840;4.346;2022-07-21T06:40:54;21.00;99.90
25410;DHT22;13339;50.840;4.346;2022-07-21T06:43:20;21.00;99.90
25410;DHT22;13339;50.840;4.346;2022-07-21T06:45:45;21.00;99.90
25410;DHT22;13339;50.840;4.346;2022-07-21T06:48:11;21.00;99.90
25410;DHT22;13339;50.840;4.346;2022-07-21T06:50:37;21.10;99.90
25410;DHT22;13339;50.840;4.346;2022-07-21T06:53:04;21.10;99.90
25410;DHT22;13339;50.840;4.346;2022-07-21T06:55:30;21.10;99.90
25410;DHT22;13339;50.840;4.346;2022-07-21T06:57:56;21.00;99.90
25410;DHT22;13339;50.840;4.346;2022-07-21T07:00:22;21.00;99.90
25410;DHT22;13339;50.840;4.346;2022-07-21T07:02:47;20.80;99.90
25410;DHT22;13339;50.840;4.346;2022-07-21T07:05:13;20.90;99.90
25410;DHT22;13339;50.840;4.346;2022-07-21T07:07:39;20.80;99.90
25410;DHT22;13339;50.840;4.346;2022-07-21T07:10:05;20.90;99.90
25410;DHT22;13339;50.840;4.346;2022-07-21T07:12:31;20.90;99.90
25410;DHT22;13339;50.840;4.346;2022-07-21T07:14:57;20.90;99.90
25410;DHT22;13339;50.840;4.346;2022-07-21T07:17:23;21.00;99.90
25410;DHT22;13339;50.840;4.346;2022-07-21T07:19:48;21.10;99.90
25410;DHT22;13339;50.840;4.346;2022-07-21T07:22:15;21.10;99.90
25410;DHT22;13339;50.840;4.346;2022-07-21T07:24:41;21.20;99.90
25410;DHT22;13339;50.840;4.346;2022-07-21T07:27:07;21.10;99.90
25410;DHT22;13339;50.840;4.346;2022-07-21T07:29:33;21.10;99.90
25410;DHT22;13339;50.840;4.346;2022-07-21T07:31:59;21.10;99.90
25410;DHT22;13339;50.840;4.346;2022-07-21T07:34:25;21.20;99.90
25410;DHT22;13339;50.840;4.346;2022-07-21T07:36:51;21.20;99.90
25410;DHT22;13339;50.840;4.346;2022-07-21T07:39:16;21.30;99.90
25410;DHT22;13339;50.840;4.346;2022-07-21T07:41:42;21.40;99.90
25410;DHT22;13339;50.840;4.346;2022-07-21T07:44:09;21.40;99.90
25410;DHT22;13339;50.840;4.346;2022-07-21T07:46:35;21.40;99.90
25410;DHT22;13339;50.840;4.346;2022-07-21T07:49:01;21.40;99.90
25410;DHT22;13339;50.840;4.346;2022-07-21T07:51:26;21.40;99.90
25410;DHT22;13339;50.840;4.346;2022-07-21T07:53:52;21.30;99.90
25410;DHT22;13339;50.840;4.346;2022-07-21T07:56:18;21.20;99.90
25410;DHT22;13339;50.840;4.346;2022-07-21T07:58:43;21.30;99.90
25410;DHT22;13339;50.840;4.346;2022-07-21T08:01:09;21.20;99.90
25410;DHT22;13339;50.840;4.346;2022-07-21T08:03:35;21.30;99.90
25410;DHT22;13339;50.840;4.346;2022-07-21T08:06:01;21.30;99.90
25410;DHT22;13339;50.840;4.346;2022-07-21T08:08:29;21.30;99.90
25410;DHT22;13339;50.840;4.346;2022-07-21T08:10:55;21.50;99.90
25410;DHT22;13339;50.840;4.346;2022-07-21T08:13:22;21.60;99.90
25410;DHT22;13339;50.840;4.346;2022-07-21T08:15:50;21.60;99.90
25410;DHT22;13339;50.840;4.346;2022-07-21T08:18:17;21.50;99.90
25410;DHT22;13339;50.840;4.346;2022-07-21T08:20:44;21.50;99.90
25410;DHT22;13339;50.840;4.346;2022-07-21T08:23:10;21.50;99.90
25410;DHT22;13339;50.840;4.346;2022-07-21T08:25:36;21.50;99.90
25410;DHT22;13339;50.840;4.346;2022-07-21T08:28:02;21.60;99.90
25410;DHT22;13339;50.840;4.346;2022-07-21T08:30:28;21.60;99.90
25410;DHT22;13339;50.840;4.346;2022-07-21T08:32:55;21.60;99.90
25410;DHT22;13339;50.840;4.346;2022-07-21T08:35:21;21.70;99.90
25410;DHT22;13339;50.840;4.346;2022-07-21T08:37:58;21.70;99.90
25410;DHT22;13339;50.840;4.346;2022-07-21T08:40:25;21.70;99.90
25410;DHT22;13339;50.840;4.346;2022-07-21T08:42:53;21.60;99.90
25410;DHT22;13339;50.840;4.346;2022-07-21T08:45:20;21.60;99.90
25410;DHT22;13339;50.840;4.346;2022-07-21T08:47:52;21.70;99.90
25410;DHT22;13339;50.840;4.346;2022-07-21T08:50:18;21.70;99.90
25410;DHT22;13339;50.840;4.346;2022-07-21T08:52:44;21.70;99.90
25410;DHT22;13339;50.840;4.346;2022-07-21T08:55:10;21.50;99.90
25410;DHT22;13339;50.840;4.346;2022-07-21T08:57:39;21.50;99.90
25410;DHT22;13339;50.840;4.346;2022-07-21T09:00:09;21.40;99.90
25410;DHT22;13339;50.840;4.346;2022-07-21T09:02:35;21.30;99.90
25410;DHT22;13339;50.840;4.346;2022-07-21T09:05:06;21.30;99.90
25410;DHT22;13339;50.840;4.346;2022-07-21T09:07:50;21.30;99.90
25410;DHT22;13339;50.840;4.346;2022-07-21T09:10:25;21.20;99.90
25410;DHT22;13339;50.840;4.346;2022-07-21T09:12:53;21.30;99.90
25410;DHT22;13339;50.840;4.346;2022-07-21T09:15:22;21.10;99.90
25410;DHT22;13339;50.840;4.346;2022-07-21T09:18:12;21.10;99.90
25410;DHT22;13339;50.840;4.346;2022-07-21T09:20:46;21.10;99.90
25410;DHT22;13339;50.840;4.346;2022-07-21T09:23:14;21.10;99.90
25410;DHT22;13339;50.840;4.346;2022-07-21T09:25:46;21.10;99.90
25410;DHT22;13339;50.840;4.346;2022-07-21T09:28:24;21.10;99.90
25410;DHT22;13339;50.840;4.346;2022-07-21T09:33:21;21.00;99.90
25410;DHT22;13339;50.840;4.346;2022-07-21T09:38:29;21.20;99.90
25410;DHT22;13339;50.840;4.346;2022-07-21T09:40:55;21.20;99.90
25410;DHT22;13339;50.840;4.346;2022-07-21T09:43:36;21.10;99.90
25410;DHT22;13339;50.840;4.346;2022-07-21T09:46:09;21.10;99.90
25410;DHT22;13339;50.840;4.346;2022-07-21T09:48:37;21.00;99.90
25410;DHT22;13339;50.840;4.346;2022-07-21T09:51:30;21.10;99.90
25410;DHT22;13339;50.840;4.346;2022-07-21T09:54:04;21.10;99.90
25410;DHT22;13339;50.840;4.346;2022-07-21T09:56:36;21.10;99.90
25410;DHT22;13339;50.840;4.346;2022-07-21T09:59:03;21.10;99.90
25410;DHT22;13339;50.840;4.346;2022-07-21T10:01:29;21.10;99.90
25410;DHT22;13339;50.840;4.346;2022-07-21T10:03:56;21.20;99.90
25410;DHT22;13339;50.840;4.346;2022-07-21T10:06:28;21.20;99.90
25410;DHT22;13339;50.840;4.346;2022-07-21T10:08:55;21.10;99.90
25410;DHT22;13339;50.840;4.346;2022-07-21T10:11:22;21.20;99.90
25410;DHT22;13339;50.840;4.346;2022-07-21T10:13:48;21.30;99.90
25410;DHT22;13339;50.840;4.346;2022-07-21T10:16:15;21.30;99.90
25410;DHT22;13339;50.840;4.346;2022-07-21T10:24:14;21.30;99.90
25410;DHT22;13339;50.840;4.346;2022-07-21T10:32:14;21.30;99.90
25410;DHT22;13339;50.840;4.346;2022-07-21T10:34:40;21.40;99.90
25410;DHT22;13339;50.840;4.346;2022-07-21T10:37:06;21.40;99.90
25410;DHT22;13339;50.840;4.346;2022-07-21T10:39:32;21.50;99.90
25410;DHT22;13339;50.840;4.346;2022-07-21T10:42:16;21.50;99.90
25410;DHT22;13339;50.840;4.346;2022-07-21T10:44:43;21.40;99.90
25410;DHT22;13339;50.840;4.346;2022-07-21T10:47:22;21.20;99.90
25410;DHT22;13339;50.840;4.346;2022-07-21T10:49:58;21.10;99.90
25410;DHT22;13339;50.840;4.346;2022-07-21T10:55:14;21.10;99.90
25410;DHT22;13339;50.840;4.346;2022-07-21T10:58:15;20.90;99.90
25410;DHT22;13339;50.840;4.346;2022-07-21T11:00:52;20.90;99.90
25410;DHT22;13339;50.840;4.346;2022-07-21T11:03:26;21.10;99.90
25410;DHT22;13339;50.840;4.346;2022-07-21T11:06:13;21.20;99.90
25410;DHT22;13339;50.840;4.346;2022-07-21T11:08:47;21.40;99.90
25410;DHT22;13339;50.840;4.346;2022-07-21T11:11:25;21.50;99.90
25410;DHT22;13339;50.840;4.346;2022-07-21T11:14:11;21.50;99.90
25410;DHT22;13339;50.840;4.346;2022-07-21T11:24:35;21.80;99.90
25410;DHT22;13339;50.840;4.346;2022-07-21T11:27:10;21.90;99.90
25410;DHT22;13339;50.840;4.346;2022-07-21T11:29:40;22.00;99.90
25410;DHT22;13339;50.840;4.346;2022-07-21T11:32:08;22.00;99.90
25410;DHT22;13339;50.840;4.346;2022-07-21T11:37:12;22.00;99.90
25410;DHT22;13339;50.840;4.346;2022-07-21T11:39:38;22.00;99.90
25410;DHT22;13339;50.840;4.346;2022-07-21T11:42:12;21.90;99.90
25410;DHT22;13339;50.840;4.346;2022-07-21T11:44:39;22.10;99.90
25410;DHT22;13339;50.840;4.346;2022-07-21T11:47:06;22.00;99.90
25410;DHT22;13339;50.840;4.346;2022-07-21T11:49:33;21.90;99.90
25410;DHT22;13339;50.840;4.346;2022-07-21T11:52:05;21.90;99.90
25410;DHT22;13339;50.840;4.346;2022-07-21T11:54:43;21.80;99.90
25410;DHT22;13339;50.840;4.346;2022-07-21T11:57:09;21.80;99.90
25410;DHT22;13339;50.840;4.346;2022-07-21T11:59:36;21.80;99.90
25410;DHT22;13339;50.840;4.346;2022-07-21T12:07:09;21.90;99.90
25410;DHT22;13339;50.840;4.346;2022-07-21T12:09:36;21.80;99.90
25410;DHT22;13339;50.840;4.346;2022-07-21T12:12:02;21.70;99.90
25410;DHT22;13339;50.840;4.346;2022-07-21T12:17:08;21.70;99.90
25410;DHT22;13339;50.840;4.346;2022-07-21T12:19:35;21.70;99.90
25410;DHT22;13339;50.840;4.346;2022-07-21T12:22:01;21.90;99.90
25410;DHT22;13339;50.840;4.346;2022-07-21T12:24:50;22.10;99.90
25410;DHT22;13339;50.840;4.346;2022-07-21T12:27:17;22.30;99.90
25410;DHT22;13339;50.840;4.346;2022-07-21T12:29:44;22.30;99.90
25410;DHT22;13339;50.840;4.346;2022-07-21T12:32:11;22.40;99.90
25410;DHT22;13339;50.840;4.346;2022-07-21T12:34:51;22.40;99.90
25410;DHT22;13339;50.840;4.346;2022-07-21T12:37:17;22.40;99.90
25410;DHT22;13339;50.840;4.346;2022-07-21T12:39:42;22.20;99.90
25410;DHT22;13339;50.840;4.346;2022-07-21T12:42:49;22.10;99.90
25410;DHT22;13339;50.840;4.346;2022-07-21T12:45:20;22.00;99.90
25410;DHT22;13339;50.840;4.346;2022-07-21T12:48:09;21.90;99.90
25410;DHT22;13339;50.840;4.346;2022-07-21T12:50:36;21.80;99.90
25410;DHT22;13339;50.840;4.346;2022-07-21T12:53:13;21.80;99.90
25410;DHT22;13339;50.840;4.346;2022-07-21T12:55:39;21.80;99.90
25410;DHT22;13339;50.840;4.346;2022-07-21T12:58:05;21.80;99.90
25410;DHT22;13339;50.840;4.346;2022-07-21T13:00:31;21.80;99.90
25410;DHT22;13339;50.840;4.346;2022-07-21T13:02:57;21.80;99.90
25410;DHT22;13339;50.840;4.346;2022-07-21T13:05:25;21.80;99.90
25410;DHT22;13339;50.840;4.346;2022-07-21T13:07:51;21.80;99.90
25410;DHT22;13339;50.840;4.346;2022-07-21T13:10:17;21.90;99.90
25410;DHT22;13339;50.840;4.346;2022-07-21T13:12:43;22.00;99.90
25410;DHT22;13339;50.840;4.346;2022-07-21T13:15:08;21.80;99.90
25410;DHT22;13339;50.840;4.346;2022-07-21T13:17:34;21.60;99.90
25410;DHT22;13339;50.840;4.346;2022-07-21T13:20:15;21.70;99.90
25410;DHT22;13339;50.840;4.346;2022-07-21T13:22:41;21.80;99.90
25410;DHT22;13339;50.840;4.346;2022-07-21T13:25:08;21.70;99.90
25410;DHT22;13339;50.840;4.346;2022-07-21T13:27:35;21.80;99.90
25410;DHT22;13339;50.840;4.346;2022-07-21T13:30:03;22.00;99.90
25410;DHT22;13339;50.840;4.346;2022-07-21T13:32:29;22.10;99.90
25410;DHT22;13339;50.840;4.346;2022-07-21T13:34:54;22.10;99.90
25410;DHT22;13339;50.840;4.346;2022-07-21T13:37:20;22.10;99.90
25410;DHT22;13339;50.840;4.346;2022-07-21T13:39:45;22.20;99.90
25410;DHT22;13339;50.840;4.346;2022-07-21T13:42:11;22.10;99.90
25410;DHT22;13339;50.840;4.346;2022-07-21T13:44:37;22.00;99.90
25410;DHT22;13339;50.840;4.346;2022-07-21T13:47:03;21.90;99.90
25410;DHT22;13339;50.840;4.346;2022-07-21T13:49:29;21.90;99.90
25410;DHT22;13339;50.840;4.346;2022-07-21T13:51:54;21.90;99.90
25410;DHT22;13339;50.840;4.346;2022-07-21T13:54:20;22.00;99.90
25410;DHT22;13339;50.840;4.346;2022-07-21T13:56:46;22.10;99.90
25410;DHT22;13339;50.840;4.346;2022-07-21T13:59:12;22.00;99.90
25410;DHT22;13339;50.840;4.346;2022-07-21T14:01:38;22.00;99.90
25410;DHT22;13339;50.840;4.346;2022-07-21T14:04:03;21.90;99.90
25410;DHT22;13339;50.840;4.346;2022-07-21T14:06:30;21.80;99.90
25410;DHT22;13339;50.840;4.346;2022-07-21T14:08:56;21.90;99.90
25410;DHT22;13339;50.840;4.346;2022-07-21T14:11:21;22.10;99.90
25410;DHT22;13339;50.840;4.346;2022-07-21T14:13:49;22.20;99.90
25410;DHT22;13339;50.840;4.346;2022-07-21T14:16:15;22.50;99.90
25410;DHT22;13339;50.840;4.346;2022-07-21T14:18:41;22.60;99.90
25410;DHT22;13339;50.840;4.346;2022-07-21T14:21:07;22.60;99.90
25410;DHT22;13339;50.840;4.346;2022-07-21T14:23:33;22.50;99.90
25410;DHT22;13339;50.840;4.346;2022-07-21T14:25:59;22.50;99.90
25410;DHT22;13339;50.840;4.346;2022-07-21T14:28:25;22.60;99.90
25410;DHT22;13339;50.840;4.346;2022-07-21T14:30:51;22.70;99.90
25410;DHT22;13339;50.840;4.346;2022-07-21T14:33:17;22.70;99.90
25410;DHT22;13339;50.840;4.346;2022-07-21T14:35:43;22.80;99.90
25410;DHT22;13339;50.840;4.346;2022-07-21T14:38:09;22.80;99.90
25410;DHT22;13339;50.840;4.346;2022-07-21T14:40:35;22.60;99.90
25410;DHT22;13339;50.840;4.346;2022-07-21T14:43:01;22.70;99.90
25410;DHT22;13339;50.840;4.346;2022-07-21T14:45:27;22.60;99.90
25410;DHT22;13339;50.840;4.346;2022-07-21T14:47:54;22.50;99.90
25410;DHT22;13339;50.840;4.346;2022-07-21T14:50:22;22.50;99.90
25410;DHT22;13339;50.840;4.346;2022-07-21T14:52:49;22.30;99.90
25410;DHT22;13339;50.840;4.346;2022-07-21T14:55:14;22.30;99.90
25410;DHT22;13339;50.840;4.346;2022-07-21T14:57:40;22.20;99.90
25410;DHT22;13339;50.840;4.346;2022-07-21T15:00:07;22.40;99.90
25410;DHT22;13339;50.840;4.346;2022-07-21T15:02:34;22.60;99.90
25410;DHT22;13339;50.840;4.346;2022-07-21T15:04:59;22.80;99.90
25410;DHT22;13339;50.840;4.346;2022-07-21T15:07:25;23.00;99.90
25410;DHT22;13339;50.840;4.346;2022-07-21T15:09:51;23.20;99.90
25410;DHT22;13339;50.840;4.346;2022-07-21T15:12:17;23.20;99.90
25410;DHT22;13339;50.840;4.346;2022-07-21T15:14:42;23.10;99.90
25410;DHT22;13339;50.840;4.346;2022-07-21T15:17:08;22.90;99.90
25410;DHT22;13339;50.840;4.346;2022-07-21T15:19:34;22.90;99.90
25410;DHT22;13339;50.840;4.346;2022-07-21T15:22:00;22.90;99.90
25410;DHT22;13339;50.840;4.346;2022-07-21T15:24:25;22.60;99.90
25410;DHT22;13339;50.840;4.346;2022-07-21T15:26:51;22.80;99.90
25410;DHT22;13339;50.840;4.346;2022-07-21T15:29:16;22.70;99.90
25410;DHT22;13339;50.840;4.346;2022-07-21T15:31:42;22.70;99.90
25410;DHT22;13339;50.840;4.346;2022-07-21T15:34:09;22.40;99.90
25410;DHT22;13339;50.840;4.346;2022-07-21T15:36:35;22.50;99.90
25410;DHT22;13339;50.840;4.346;2022-07-21T15:39:01;22.60;99.90
25410;DHT22;13339;50.840;4.346;2022-07-21T15:41:27;22.70;99.90
25410;DHT22;13339;50.840;4.346;2022-07-21T15:43:54;22.80;99.90
25410;DHT22;13339;50.840;4.346;2022-07-21T15:46:19;22.60;99.90
25410;DHT22;13339;50.840;4.346;2022-07-21T15:48:45;22.50;99.90
25410;DHT22;13339;50.840;4.346;2022-07-21T15:51:11;22.60;99.90
25410;DHT22;13339;50.840;4.346;2022-07-21T15:53:37;22.70;99.90
25410;DHT22;13339;50.840;4.346;2022-07-21T15:56:04;22.70;99.90
25410;DHT22;13339;50.840;4.346;2022-07-21T15:58:31;22.70;99.90
25410;DHT22;13339;50.840;4.346;2022-07-21T16:00:57;22.80;99.90
25410;DHT22;13339;50.840;4.346;2022-07-21T16:03:24;22.50;99.90
25410;DHT22;13339;50.840;4.346;2022-07-21T16:05:50;22.20;99.90
25410;DHT22;13339;50.840;4.346;2022-07-21T16:08:16;22.00;99.90